createdAt,value
2022-09-30T00:01:15.338Z,7.40
2022-09-30T00:03:42.048Z,7.30
2022-09-30T00:06:09.264Z,7.30
2022-09-30T00:08:37.553Z,7.30
2022-09-30T00:11:20.192Z,7.30
2022-09-30T00:13:49.292Z,7.30
2022-09-30T00:16:16.936Z,7.30
2022-09-30T00:18:44.572Z,7.20
2022-09-30T00:21:12.926Z,7.20
2022-09-30T00:23:40.158Z,7.20
2022-09-30T00:26:08.403Z,7.10
2022-09-30T00:28:35.189Z,7.10
2022-09-30T00:31:05.274Z,7.00
2022-09-30T00:33:32.137Z,7.00
2022-09-30T00:35:58.860Z,6.90
2022-09-30T00:38:25.528Z,6.90
2022-09-30T00:40:52.556Z,6.90
2022-09-30T00:43:41.215Z,6.90
2022-09-30T00:46:31.308Z,7.00
2022-09-30T00:49:02.014Z,6.90
2022-09-30T00:51:38.869Z,6.90
2022-09-30T00:54:28.402Z,7.00
2022-09-30T00:57:01.333Z,7.10
2022-09-30T00:59:47.669Z,7.10
2022-09-30T01:02:14.857Z,7.10
2022-09-30T01:04:42.682Z,7.10
2022-09-30T01:07:09.944Z,7.10
2022-09-30T01:09:39.063Z,7.10
2022-09-30T01:12:16.452Z,7.10
2022-09-30T01:14:45.509Z,7.10
2022-09-30T01:17:33.957Z,7.10
2022-09-30T01:20:06.432Z,7.10
2022-09-30T01:22:51.582Z,7.10
2022-09-30T01:25:38.274Z,7.10
2022-09-30T01:28:10.704Z,7.10
2022-09-30T01:30:58.941Z,7.10
2022-09-30T01:33:53.691Z,7.20
2022-09-30T01:36:41.796Z,7.10
2022-09-30T01:39:34.352Z,7.10
2022-09-30T01:42:04.375Z,7.20
2022-09-30T01:44:44.283Z,7.20
2022-09-30T01:47:16.103Z,7.20
2022-09-30T01:49:47.462Z,7.20
2022-09-30T01:52:21.338Z,7.20
2022-09-30T01:54:59.930Z,7.20
2022-09-30T01:57:46.946Z,7.30
2022-09-30T02:00:15.213Z,7.30
2022-09-30T02:02:51.427Z,7.30
2022-09-30T02:05:34.340Z,7.40
2022-09-30T02:08:05.838Z,7.40
2022-09-30T02:10:34.616Z,7.50
2022-09-30T02:13:11.164Z,7.40
2022-09-30T02:15:46.229Z,7.50
2022-09-30T02:18:28.619Z,7.40
2022-09-30T02:21:00.908Z,7.40
2022-09-30T02:23:42.551Z,7.40
2022-09-30T02:26:16.867Z,7.40
2022-09-30T02:28:51.025Z,7.50
2022-09-30T02:31:21.537Z,7.40
2022-09-30T02:33:54.877Z,7.50
2022-09-30T02:36:24.607Z,7.50
2022-09-30T02:39:01.467Z,7.50
2022-09-30T02:41:29.912Z,7.50
2022-09-30T02:43:57.428Z,7.50
2022-09-30T02:46:43.363Z,7.50
2022-09-30T02:49:38.040Z,7.50
2022-09-30T02:52:27.639Z,7.50
2022-09-30T02:55:04.913Z,7.40
2022-09-30T02:57:34.298Z,7.40
2022-09-30T03:00:03.458Z,7.50
2022-09-30T03:02:30.952Z,7.50
2022-09-30T03:04:57.634Z,7.40
2022-09-30T03:07:24.465Z,7.30
2022-09-30T03:09:56.761Z,7.30
2022-09-30T03:12:26.335Z,7.20
2022-09-30T03:15:17.300Z,7.20
2022-09-30T03:18:10.077Z,7.20
2022-09-30T03:20:45.687Z,7.10
2022-09-30T03:23:30.129Z,7.10
2022-09-30T03:26:12.574Z,7.00
2022-09-30T03:29:09.321Z,7.00
2022-09-30T03:31:57.407Z,6.90
2022-09-30T03:34:39.973Z,6.80
2022-09-30T03:37:18.056Z,6.80
2022-09-30T03:40:22.717Z,6.80
2022-09-30T03:42:57.420Z,6.80
2022-09-30T03:45:41.683Z,6.70
2022-09-30T03:48:12.856Z,6.70
2022-09-30T03:50:41.308Z,6.70
2022-09-30T03:53:12.618Z,6.60
2022-09-30T03:55:50.870Z,6.60
2022-09-30T03:58:20.259Z,6.60
2022-09-30T04:00:50.109Z,6.50
2022-09-30T04:03:17.343Z,6.50
2022-09-30T04:05:43.935Z,6.50
2022-09-30T04:08:10.827Z,6.50
2022-09-30T04:10:43.692Z,6.40
2022-09-30T04:13:11.613Z,6.40
2022-09-30T04:15:39.005Z,6.40
2022-09-30T04:18:05.950Z,6.40
2022-09-30T04:20:32.867Z,6.40
2022-09-30T04:23:01.076Z,6.40
2022-09-30T04:25:28.701Z,6.40
2022-09-30T04:27:56.254Z,6.30
2022-09-30T04:30:26.304Z,6.30
2022-09-30T04:32:54.079Z,6.30
2022-09-30T04:35:20.748Z,6.30
2022-09-30T04:37:48.149Z,6.30
2022-09-30T04:40:17.019Z,6.30
2022-09-30T04:42:43.897Z,6.30
2022-09-30T04:45:12.671Z,6.30
2022-09-30T04:47:43.185Z,6.30
2022-09-30T04:50:10.275Z,6.20
2022-09-30T04:52:38.276Z,6.20
2022-09-30T04:55:05.692Z,6.20
2022-09-30T04:57:32.490Z,6.20
2022-09-30T04:59:59.366Z,6.10
2022-09-30T05:02:26.066Z,6.10
2022-09-30T05:04:55.148Z,6.10
2022-09-30T05:07:22.194Z,6.10
2022-09-30T05:09:48.806Z,6.00
2022-09-30T05:12:15.658Z,6.00
2022-09-30T05:14:42.563Z,6.00
2022-09-30T05:17:09.403Z,6.00
2022-09-30T05:19:36.038Z,6.00
2022-09-30T05:22:03.235Z,5.90
2022-09-30T05:24:30.862Z,6.00
2022-09-30T05:26:57.563Z,5.90
2022-09-30T05:29:24.288Z,5.90
2022-09-30T05:31:51.148Z,5.90
2022-09-30T05:34:17.883Z,5.90
2022-09-30T05:36:44.579Z,5.90
2022-09-30T05:39:11.828Z,5.90
2022-09-30T05:41:38.418Z,5.90
2022-09-30T05:44:06.244Z,5.90
2022-09-30T05:46:32.931Z,5.90
2022-09-30T05:48:59.836Z,5.90
2022-09-30T05:51:26.775Z,5.90
2022-09-30T05:53:53.405Z,5.90
2022-09-30T05:56:20.043Z,6.00
2022-09-30T05:58:47.176Z,6.00
2022-09-30T06:01:15.664Z,6.00
2022-09-30T06:03:43.906Z,6.00
2022-09-30T06:06:10.698Z,6.00
2022-09-30T06:08:37.451Z,6.10
2022-09-30T06:11:11.728Z,6.10
2022-09-30T06:13:39.725Z,6.10
2022-09-30T06:16:07.573Z,6.10
2022-09-30T06:18:35.143Z,6.10
2022-09-30T06:21:04.623Z,6.20
2022-09-30T06:23:34.939Z,6.20
2022-09-30T06:26:03.272Z,6.30
2022-09-30T06:28:29.920Z,6.40
2022-09-30T06:30:56.699Z,6.40
2022-09-30T06:33:23.409Z,6.50
2022-09-30T06:35:50.639Z,6.50
2022-09-30T06:38:17.276Z,6.60
2022-09-30T06:40:44.966Z,6.70
2022-09-30T06:43:11.962Z,6.90
2022-09-30T06:45:38.821Z,7.10
2022-09-30T06:48:08.770Z,7.50
2022-09-30T06:50:36.140Z,8.00
2022-09-30T06:53:06.279Z,8.60
2022-09-30T06:55:36.708Z,9.20
2022-09-30T06:58:03.519Z,9.70
2022-09-30T07:00:30.251Z,10.00
2022-09-30T07:02:57.237Z,10.10
2022-09-30T07:05:25.725Z,10.10
2022-09-30T07:07:53.771Z,10.20
2022-09-30T07:10:20.981Z,10.20
2022-09-30T07:12:52.078Z,10.30
2022-09-30T07:15:22.867Z,10.40
2022-09-30T07:17:53.730Z,10.50
2022-09-30T07:20:20.545Z,10.60
2022-09-30T07:22:47.609Z,10.70
2022-09-30T07:25:14.751Z,10.80
2022-09-30T07:27:41.816Z,10.80
2022-09-30T07:30:14.261Z,10.80
2022-09-30T07:32:43.284Z,10.80
2022-09-30T07:35:09.833Z,10.70
2022-09-30T07:37:36.866Z,10.80
2022-09-30T07:40:05.855Z,10.70
2022-09-30T07:42:32.807Z,10.70
2022-09-30T07:44:59.461Z,10.70
2022-09-30T07:47:26.319Z,10.70
2022-09-30T07:49:53.041Z,10.70
2022-09-30T07:52:19.654Z,10.70
2022-09-30T07:54:50.370Z,10.70
2022-09-30T07:57:17.451Z,10.80
2022-09-30T07:59:44.260Z,10.80
2022-09-30T08:02:17.242Z,10.90
2022-09-30T08:04:44.783Z,10.90
2022-09-30T08:07:13.326Z,11.00
2022-09-30T08:09:40.208Z,11.10
2022-09-30T08:12:06.897Z,11.20
2022-09-30T08:14:33.618Z,11.40
2022-09-30T08:17:00.828Z,11.50
2022-09-30T08:19:29.448Z,11.60
2022-09-30T08:21:56.809Z,11.80
2022-09-30T08:24:24.718Z,11.90
2022-09-30T08:26:52.174Z,12.00
2022-09-30T08:29:35.661Z,12.10
2022-09-30T08:32:05.764Z,12.20
2022-09-30T08:34:35.200Z,12.30
2022-09-30T08:37:06.093Z,12.30
2022-09-30T08:39:35.138Z,12.30
2022-09-30T08:42:36.585Z,12.30
2022-09-30T08:45:34.135Z,12.40
2022-09-30T08:48:28.961Z,12.40
2022-09-30T08:51:36.120Z,12.50
2022-09-30T08:54:06.702Z,12.60
2022-09-30T08:56:34.533Z,12.70
2022-09-30T08:59:21.438Z,12.80
2022-09-30T09:01:53.560Z,13.00
2022-09-30T09:04:20.302Z,13.20
2022-09-30T09:06:56.462Z,13.50
2022-09-30T09:09:26.005Z,13.80
2022-09-30T09:12:06.048Z,14.10
2022-09-30T09:14:54.478Z,14.30
2022-09-30T09:18:21.482Z,14.60
2022-09-30T09:21:03.312Z,14.70
2022-09-30T09:23:33.023Z,14.80
2022-09-30T09:26:00.039Z,14.80
2022-09-30T09:28:50.317Z,14.80
2022-09-30T09:31:20.941Z,14.80
2022-09-30T09:33:47.651Z,14.80
2022-09-30T09:36:44.153Z,14.70
2022-09-30T09:39:51.775Z,14.80
2022-09-30T09:42:54.547Z,14.80
2022-09-30T09:45:42.081Z,14.70
2022-09-30T09:48:13.466Z,14.60
2022-09-30T09:50:46.191Z,14.60
2022-09-30T09:53:38.315Z,14.60
2022-09-30T09:56:18.207Z,14.60
2022-09-30T09:59:05.097Z,14.60
2022-09-30T10:01:36.859Z,14.70
2022-09-30T10:04:11.647Z,14.70
2022-09-30T10:06:52.115Z,14.80
2022-09-30T10:09:39.150Z,14.90
2022-09-30T10:12:05.754Z,14.80
2022-09-30T10:14:46.343Z,14.80
2022-09-30T10:17:30.773Z,14.80
2022-09-30T10:20:08.436Z,14.90
2022-09-30T10:22:36.416Z,14.90
2022-09-30T10:25:15.819Z,14.90
2022-09-30T10:27:55.903Z,14.90
2022-09-30T10:30:38.527Z,14.80
2022-09-30T10:33:14.130Z,14.70
2022-09-30T10:36:22.509Z,14.60
2022-09-30T10:39:02.635Z,14.60
2022-09-30T10:41:36.021Z,14.60
2022-09-30T10:44:14.813Z,14.70
2022-09-30T10:46:44.542Z,14.90
2022-09-30T10:49:35.600Z,15.10
2022-09-30T10:52:04.029Z,15.20
2022-09-30T10:54:39.980Z,15.30
2022-09-30T10:57:15.423Z,15.40
2022-09-30T10:59:43.507Z,15.40
2022-09-30T11:02:25.500Z,15.40
2022-09-30T11:04:59.882Z,15.30
2022-09-30T11:07:59.172Z,15.20
2022-09-30T11:10:39.275Z,15.20
2022-09-30T11:13:26.266Z,15.20
2022-09-30T11:16:05.013Z,15.30
2022-09-30T11:18:37.897Z,15.50
2022-09-30T11:21:29.486Z,15.70
2022-09-30T11:24:29.540Z,16.00
2022-09-30T11:27:24.971Z,16.40
2022-09-30T11:30:17.496Z,16.50
2022-09-30T11:32:44.086Z,16.50
2022-09-30T11:35:35.379Z,16.40
2022-09-30T11:38:33.890Z,16.40
2022-09-30T11:41:15.379Z,16.40
2022-09-30T11:43:56.991Z,16.60
2022-09-30T11:46:35.425Z,16.70
2022-09-30T11:49:16.676Z,16.70
2022-09-30T11:52:10.096Z,16.70
2022-09-30T11:55:10.606Z,16.60
2022-09-30T11:57:55.276Z,16.60
2022-09-30T12:00:22.075Z,16.80
2022-09-30T12:02:53.093Z,17.00
2022-09-30T12:05:39.831Z,17.30
2022-09-30T12:08:28.830Z,17.60
2022-09-30T12:11:02.119Z,17.90
2022-09-30T12:13:39.505Z,17.80
2022-09-30T12:16:23.306Z,17.70
2022-09-30T12:18:56.243Z,17.60
2022-09-30T12:21:27.577Z,17.50
2022-09-30T12:24:00.696Z,18.00
2022-09-30T12:26:27.624Z,18.90
2022-09-30T12:29:15.231Z,19.90
2022-09-30T12:32:01.139Z,20.80
2022-09-30T12:34:53.418Z,21.30
2022-09-30T12:37:36.853Z,21.70
2022-09-30T12:40:52.091Z,22.60
2022-09-30T12:43:38.617Z,23.70
2022-09-30T12:46:14.564Z,24.50
2022-09-30T12:48:53.433Z,25.10
2022-09-30T12:51:31.997Z,25.40
2022-09-30T12:54:26.321Z,25.10
2022-09-30T12:57:01.100Z,24.20
2022-09-30T12:59:30.829Z,24.00
2022-09-30T13:01:59.542Z,24.10
2022-09-30T13:04:35.239Z,24.40
2022-09-30T13:07:01.861Z,25.10
2022-09-30T13:09:54.947Z,25.60
2022-09-30T13:12:42.607Z,25.70
2022-09-30T13:15:29.585Z,25.10
2022-09-30T13:18:26.957Z,24.10
2022-09-30T13:20:54.984Z,23.50
2022-09-30T13:23:37.037Z,23.30
2022-09-30T13:26:24.920Z,23.90
2022-09-30T13:29:01.942Z,24.50
2022-09-30T13:31:30.283Z,24.80
2022-09-30T13:34:03.043Z,25.10
2022-09-30T13:36:56.530Z,25.60
2022-09-30T13:39:25.577Z,26.00
2022-09-30T13:41:59.163Z,26.20
2022-09-30T13:45:07.754Z,26.40
2022-09-30T13:47:43.712Z,26.30
2022-09-30T13:50:31.590Z,25.70
2022-09-30T13:53:01.334Z,25.20
2022-09-30T13:55:45.197Z,24.50
2022-09-30T13:58:37.255Z,23.80
2022-09-30T14:01:32.301Z,23.30
2022-09-30T14:04:07.852Z,22.70
2022-09-30T14:06:45.295Z,22.10
2022-09-30T14:09:14.677Z,21.70
2022-09-30T14:11:53.468Z,21.30
2022-09-30T14:14:50.162Z,20.90
2022-09-30T14:17:34.887Z,20.50
2022-09-30T14:20:27.034Z,20.50
2022-09-30T14:22:53.691Z,20.50
2022-09-30T14:25:23.812Z,20.30
2022-09-30T14:28:03.649Z,20.00
2022-09-30T14:30:37.864Z,19.80
2022-09-30T14:33:25.766Z,19.70
2022-09-30T14:35:54.503Z,19.80
2022-09-30T14:38:27.920Z,20.20
2022-09-30T14:40:58.411Z,20.60
2022-09-30T14:43:35.896Z,20.90
2022-09-30T14:46:10.580Z,21.20
2022-09-30T14:48:39.600Z,21.00
2022-09-30T14:51:12.865Z,20.90
2022-09-30T14:53:56.778Z,20.90
2022-09-30T14:56:31.706Z,20.70
2022-09-30T14:59:00.820Z,20.50
2022-09-30T15:01:34.543Z,20.40
2022-09-30T15:04:17.118Z,20.50
2022-09-30T15:06:47.547Z,20.80
2022-09-30T15:09:27.697Z,21.60
2022-09-30T15:11:55.227Z,23.00
2022-09-30T15:14:23.743Z,23.70
2022-09-30T15:16:56.109Z,23.80
2022-09-30T15:19:22.727Z,23.50
2022-09-30T15:21:52.950Z,23.00
2022-09-30T15:24:22.636Z,22.40
2022-09-30T15:26:51.222Z,22.00
2022-09-30T15:29:18.296Z,22.00
2022-09-30T15:32:01.093Z,21.80
2022-09-30T15:34:28.814Z,21.90
2022-09-30T15:37:06.670Z,21.70
2022-09-30T15:40:00.597Z,21.20
2022-09-30T15:42:44.152Z,20.70
2022-09-30T15:45:18.446Z,20.20
2022-09-30T15:47:57.954Z,19.80
2022-09-30T15:50:45.859Z,19.50
2022-09-30T15:53:21.275Z,19.20
2022-09-30T15:55:53.283Z,18.90
2022-09-30T15:58:39.714Z,18.60
2022-09-30T16:01:13.822Z,18.20
2022-09-30T16:03:49.676Z,18.00
2022-09-30T16:06:20.663Z,17.80
2022-09-30T16:08:53.782Z,17.80
2022-09-30T16:11:26.409Z,17.70
2022-09-30T16:13:55.153Z,17.60
2022-09-30T16:16:27.027Z,17.50
2022-09-30T16:18:56.787Z,17.40
2022-09-30T16:21:43.789Z,17.20
2022-09-30T16:24:25.433Z,17.10
2022-09-30T16:26:57.037Z,17.00
2022-09-30T16:29:28.533Z,16.80
2022-09-30T16:31:56.631Z,16.70
2022-09-30T16:34:31.246Z,16.60
2022-09-30T16:37:11.264Z,16.50
2022-09-30T16:39:37.951Z,16.40
2022-09-30T16:42:05.010Z,16.30
2022-09-30T16:44:35.399Z,16.20
2022-09-30T16:47:02.758Z,16.10
2022-09-30T16:49:29.481Z,16.00
2022-09-30T16:51:56.052Z,15.90
2022-09-30T16:54:22.670Z,15.80
2022-09-30T16:56:49.386Z,15.70
2022-09-30T16:59:17.158Z,15.60
2022-09-30T17:01:44.236Z,15.60
2022-09-30T17:04:14.101Z,15.50
2022-09-30T17:06:43.952Z,15.40
2022-09-30T17:09:10.497Z,15.40
2022-09-30T17:11:38.076Z,15.30
2022-09-30T17:14:05.331Z,15.20
2022-09-30T17:16:33.125Z,15.20
2022-09-30T17:19:00.090Z,15.10
2022-09-30T17:21:26.952Z,15.10
2022-09-30T17:23:55.482Z,15.00
2022-09-30T17:26:22.297Z,14.90
2022-09-30T17:28:48.972Z,14.90
2022-09-30T17:31:15.837Z,14.90
2022-09-30T17:33:42.662Z,14.90
2022-09-30T17:36:10.900Z,14.90
2022-09-30T17:38:38.973Z,14.80
2022-09-30T17:41:25.317Z,14.80
2022-09-30T17:43:51.967Z,14.70
2022-09-30T17:46:23.062Z,14.70
2022-09-30T17:48:54.361Z,14.60
2022-09-30T17:51:21.107Z,14.50
2022-09-30T17:53:50.048Z,14.50
2022-09-30T17:56:19.937Z,14.40
2022-09-30T17:58:48.803Z,14.40
2022-09-30T18:01:17.827Z,14.30
2022-09-30T18:03:45.739Z,14.20
2022-09-30T18:06:16.217Z,14.20
2022-09-30T18:08:43.603Z,14.20
2022-09-30T18:11:11.485Z,14.10
2022-09-30T18:13:38.097Z,14.10
2022-09-30T18:16:08.235Z,14.00
2022-09-30T18:18:35.705Z,14.00
2022-09-30T18:21:02.607Z,13.90
2022-09-30T18:23:29.229Z,13.90
2022-09-30T18:25:56.443Z,13.90
2022-09-30T18:28:23.284Z,13.90
2022-09-30T18:30:50.003Z,13.90
2022-09-30T18:33:18.645Z,13.90
2022-09-30T18:35:46.333Z,13.90
2022-09-30T18:38:14.708Z,13.90
2022-09-30T18:40:43.406Z,13.90
2022-09-30T18:43:13.469Z,13.90
2022-09-30T18:45:40.914Z,13.90
2022-09-30T18:48:08.351Z,14.00
2022-09-30T18:50:35.207Z,14.00
2022-09-30T18:53:09.143Z,14.00
2022-09-30T18:55:38.064Z,14.00
2022-09-30T18:58:04.842Z,14.00
2022-09-30T19:00:31.659Z,14.00
2022-09-30T19:02:58.359Z,14.00
2022-09-30T19:05:25.204Z,14.00
2022-09-30T19:07:52.440Z,14.00
2022-09-30T19:10:19.159Z,14.00
2022-09-30T19:12:46.006Z,14.00
2022-09-30T19:15:15.648Z,14.10
2022-09-30T19:17:43.586Z,14.10
2022-09-30T19:20:11.157Z,14.10
2022-09-30T19:22:38.435Z,14.10
2022-09-30T19:25:07.348Z,14.10
2022-09-30T19:27:37.653Z,14.10
2022-09-30T19:30:06.366Z,14.10
2022-09-30T19:32:35.742Z,14.10
2022-09-30T19:35:10.034Z,14.10
2022-09-30T19:37:36.758Z,14.10
2022-09-30T19:40:17.995Z,14.10
2022-09-30T19:42:48.139Z,14.10
2022-09-30T19:45:16.072Z,14.10
2022-09-30T19:47:42.726Z,14.10
2022-09-30T19:50:09.600Z,14.10
2022-09-30T19:52:41.418Z,14.10
2022-09-30T19:55:16.701Z,14.10
2022-09-30T19:57:43.756Z,14.10
2022-09-30T20:00:12.809Z,14.10
2022-09-30T20:02:39.651Z,14.10
2022-09-30T20:05:07.056Z,14.10
2022-09-30T20:07:34.979Z,14.20
2022-09-30T20:10:01.863Z,14.20
2022-09-30T20:12:29.217Z,14.20
2022-09-30T20:15:14.818Z,14.30
2022-09-30T20:17:41.475Z,14.30
2022-09-30T20:20:27.207Z,14.30
2022-09-30T20:22:53.880Z,14.30
2022-09-30T20:25:20.621Z,14.30
2022-09-30T20:27:51.303Z,14.30
2022-09-30T20:30:19.512Z,14.30
2022-09-30T20:32:46.165Z,14.30
2022-09-30T20:35:12.936Z,14.30
2022-09-30T20:37:40.648Z,14.30
2022-09-30T20:40:09.225Z,14.30
2022-09-30T20:42:38.100Z,14.30
2022-09-30T20:45:06.296Z,14.30
2022-09-30T20:47:32.986Z,14.30
2022-09-30T20:49:59.615Z,14.20
2022-09-30T20:52:26.287Z,14.20
2022-09-30T20:54:53.137Z,14.20
2022-09-30T20:57:19.750Z,14.20
2022-09-30T20:59:47.132Z,14.20
2022-09-30T21:02:14.367Z,14.20
2022-09-30T21:04:41.646Z,14.20
2022-09-30T21:07:08.556Z,14.20
2022-09-30T21:09:35.214Z,14.10
2022-09-30T21:12:02.127Z,14.10
2022-09-30T21:14:28.785Z,14.10
2022-09-30T21:16:55.487Z,14.10
2022-09-30T21:19:22.175Z,14.10
2022-09-30T21:21:48.819Z,14.00
2022-09-30T21:24:16.288Z,14.00
2022-09-30T21:26:43.164Z,14.00
2022-09-30T21:29:09.797Z,13.90
2022-09-30T21:31:37.735Z,13.80
2022-09-30T21:34:05.382Z,13.70
2022-09-30T21:36:32.828Z,13.60
2022-09-30T21:39:04.144Z,13.40
2022-09-30T21:41:33.261Z,13.30
2022-09-30T21:44:01.331Z,13.20
2022-09-30T21:46:29.447Z,13.10
2022-09-30T21:49:16.006Z,13.00
2022-09-30T21:51:42.970Z,12.80
2022-09-30T21:54:11.696Z,12.80
2022-09-30T21:56:38.940Z,12.70
2022-09-30T21:59:05.954Z,12.70
2022-09-30T22:01:33.263Z,12.60
2022-09-30T22:04:00.270Z,12.50
2022-09-30T22:06:27.484Z,12.50
2022-09-30T22:08:54.119Z,12.50
2022-09-30T22:11:27.451Z,12.40
2022-09-30T22:13:55.392Z,12.40
2022-09-30T22:16:29.387Z,12.40
2022-09-30T22:19:00.282Z,12.30
2022-09-30T22:21:28.515Z,12.30
2022-09-30T22:23:55.173Z,12.30
2022-09-30T22:26:23.415Z,12.20
2022-09-30T22:29:01.951Z,12.20
2022-09-30T22:31:31.564Z,12.10
2022-09-30T22:34:22.947Z,12.10
2022-09-30T22:37:09.040Z,12.00
2022-09-30T22:39:35.749Z,12.00
2022-09-30T22:42:02.859Z,11.90
2022-09-30T22:44:32.689Z,11.90
2022-09-30T22:47:00.034Z,11.90
2022-09-30T22:49:28.145Z,11.90
2022-09-30T22:51:56.747Z,11.80
2022-09-30T22:54:24.685Z,11.80
2022-09-30T22:56:51.626Z,11.80
2022-09-30T22:59:19.089Z,11.70
2022-09-30T23:01:46.486Z,11.70
2022-09-30T23:04:17.219Z,11.70
2022-09-30T23:06:47.037Z,11.70
2022-09-30T23:09:13.891Z,11.60
2022-09-30T23:11:42.262Z,11.60
2022-09-30T23:14:09.084Z,11.60
2022-09-30T23:16:35.879Z,11.60
2022-09-30T23:19:02.943Z,11.60
2022-09-30T23:21:29.684Z,11.60
2022-09-30T23:23:56.429Z,11.60
2022-09-30T23:26:25.800Z,11.60
2022-09-30T23:28:56.962Z,11.60
2022-09-30T23:31:23.795Z,11.60
2022-09-30T23:33:53.011Z,11.50
2022-09-30T23:36:29.511Z,11.50
2022-09-30T23:39:02.036Z,11.50
2022-09-30T23:41:29.840Z,11.50
2022-09-30T23:43:56.652Z,11.50
2022-09-30T23:46:23.476Z,11.40
2022-09-30T23:48:50.136Z,11.40
2022-09-30T23:51:17.880Z,11.40
2022-09-30T23:53:44.533Z,11.40
2022-09-30T23:56:13.724Z,11.40
2022-09-30T23:58:40.410Z,11.40
